ACA64 RKSI-CYVR
Flight info
| Callsign | ACA64 |
|---|---|
| Flight time | N/A |
| Altitude | 35000 |
| Route | EGOBA2H EGOBA Y697 LANAT Y51 SAMON Y142 GTC Y512 BEKEN/N0493F370 Y512 OATIS R580 OPAKE A342 DRAPP/N0492F390 A342 CDB DCT 55N160W 55N150W DCT SAYNT DCT KATCH DCT POWOL WHSLR8 |
| Aircraft | B789/H-SDE1E2E3FGHIJ2J3J4J5M1RWXY/LB1D1 |
Departure
| Time | N/A |
|---|---|
| Airport | Incheon International Airport (RKSI) |
Arrival
| Time | 2026-05-07 15:14 |
|---|---|
| Airport | Vancouver International Airport (CYVR) |
| Time | Latitude | Longitude | Altitude | Speed | Heading |
|---|---|---|---|---|---|
| 2026-05-07 14:20 | 52.96733 | -132.39268 | 37286 ft | 531 kts | 121° |
| 2026-05-07 14:20 | 52.95048 | -132.33813 | 37289 ft | 531 kts | 121° |
| 2026-05-07 14:21 | 52.91669 | -132.22917 | 37286 ft | 531 kts | 121° |
| 2026-05-07 14:21 | 52.88287 | -132.12056 | 37289 ft | 529 kts | 121° |
| 2026-05-07 14:22 | 52.84899 | -132.01227 | 37290 ft | 529 kts | 121° |
| 2026-05-07 14:22 | 52.81501 | -131.90413 | 37288 ft | 530 kts | 121° |
| 2026-05-07 14:23 | 52.78101 | -131.79644 | 37305 ft | 533 kts | 121° |
| 2026-05-07 14:23 | 52.74659 | -131.68785 | 37299 ft | 534 kts | 121° |
| 2026-05-07 14:24 | 52.71200 | -131.57923 | 37294 ft | 534 kts | 121° |
| 2026-05-07 14:24 | 52.67731 | -131.47081 | 37294 ft | 538 kts | 121° |
| 2026-05-07 14:25 | 52.64202 | -131.36099 | 37301 ft | 545 kts | 121° |
| 2026-05-07 14:25 | 52.60623 | -131.25009 | 37287 ft | 550 kts | 121° |
| 2026-05-07 14:26 | 52.57036 | -131.13944 | 37277 ft | 551 kts | 121° |
| 2026-05-07 14:26 | 52.53422 | -131.02846 | 37276 ft | 550 kts | 121° |
| 2026-05-07 14:27 | 52.49800 | -130.91777 | 37272 ft | 549 kts | 121° |
| 2026-05-07 14:27 | 52.46174 | -130.80743 | 37255 ft | 549 kts | 121° |
| 2026-05-07 14:28 | 52.42544 | -130.69746 | 37255 ft | 548 kts | 122° |
| 2026-05-07 14:28 | 52.38925 | -130.58834 | 37247 ft | 549 kts | 122° |
| 2026-05-07 14:29 | 52.35269 | -130.47857 | 37222 ft | 550 kts | 122° |
| 2026-05-07 14:29 | 52.31589 | -130.36855 | 37250 ft | 551 kts | 122° |
| 2026-05-07 14:30 | 52.27901 | -130.25878 | 37251 ft | 551 kts | 122° |
| 2026-05-07 14:30 | 52.24185 | -130.14872 | 37253 ft | 554 kts | 122° |
| 2026-05-07 14:31 | 52.20459 | -130.03876 | 37243 ft | 553 kts | 122° |
| 2026-05-07 14:31 | 52.16730 | -129.92926 | 37234 ft | 552 kts | 122° |
| 2026-05-07 14:32 | 52.12993 | -129.81999 | 37230 ft | 551 kts | 122° |
| 2026-05-07 14:32 | 52.09280 | -129.71191 | 37230 ft | 550 kts | 122° |
| 2026-05-07 14:33 | 52.05527 | -129.60312 | 37236 ft | 551 kts | 122° |
| 2026-05-07 14:33 | 52.01754 | -129.49421 | 37233 ft | 553 kts | 122° |
| 2026-05-07 14:34 | 51.97967 | -129.38540 | 37239 ft | 554 kts | 122° |
| 2026-05-07 14:34 | 51.94172 | -129.27681 | 37230 ft | 553 kts | 122° |
| 2026-05-07 14:35 | 51.90367 | -129.16841 | 37220 ft | 553 kts | 122° |
| 2026-05-07 14:35 | 51.86584 | -129.06109 | 37222 ft | 552 kts | 122° |
| 2026-05-07 14:36 | 51.82761 | -128.95311 | 37217 ft | 552 kts | 122° |
| 2026-05-07 14:36 | 51.78939 | -128.84562 | 37217 ft | 550 kts | 122° |
| 2026-05-07 14:37 | 51.75116 | -128.73857 | 37253 ft | 551 kts | 122° |
| 2026-05-07 14:37 | 51.69313 | -128.57689 | 37236 ft | 557 kts | 122° |
| 2026-05-07 14:38 | 51.65450 | -128.46987 | 37238 ft | 556 kts | 122° |
| 2026-05-07 14:38 | 51.61559 | -128.36251 | 37221 ft | 554 kts | 122° |
| 2026-05-07 14:39 | 51.57661 | -128.25540 | 37216 ft | 554 kts | 122° |
| 2026-05-07 14:39 | 51.53753 | -128.14848 | 37217 ft | 555 kts | 123° |
| 2026-05-07 14:40 | 51.49825 | -128.04144 | 37224 ft | 556 kts | 123° |
| 2026-05-07 14:40 | 51.45917 | -127.93542 | 37238 ft | 555 kts | 123° |
| 2026-05-07 14:41 | 51.41974 | -127.82886 | 37236 ft | 555 kts | 123° |
| 2026-05-07 14:41 | 51.38027 | -127.72266 | 37235 ft | 554 kts | 123° |
| 2026-05-07 14:42 | 51.34074 | -127.61674 | 37234 ft | 553 kts | 123° |
| 2026-05-07 14:42 | 51.30119 | -127.51118 | 37243 ft | 554 kts | 123° |
| 2026-05-07 14:43 | 51.26168 | -127.40620 | 37241 ft | 554 kts | 123° |
| 2026-05-07 14:43 | 51.22183 | -127.30073 | 37242 ft | 554 kts | 123° |
| 2026-05-07 14:44 | 51.18184 | -127.19532 | 37247 ft | 557 kts | 123° |
| 2026-05-07 14:44 | 51.14145 | -127.08926 | 37253 ft | 559 kts | 123° |
| 2026-05-07 14:45 | 51.10099 | -126.98351 | 37241 ft | 559 kts | 123° |
| 2026-05-07 14:45 | 51.06046 | -126.87798 | 37240 ft | 559 kts | 123° |
| 2026-05-07 14:46 | 51.02005 | -126.77322 | 37235 ft | 558 kts | 123° |
| 2026-05-07 14:46 | 50.97940 | -126.66823 | 37236 ft | 558 kts | 123° |
| 2026-05-07 14:47 | 50.93863 | -126.56337 | 37233 ft | 559 kts | 123° |
| 2026-05-07 14:47 | 50.89773 | -126.45860 | 37227 ft | 559 kts | 123° |
| 2026-05-07 14:48 | 50.85683 | -126.35426 | 37232 ft | 557 kts | 123° |
| 2026-05-07 14:48 | 50.81592 | -126.25031 | 37228 ft | 557 kts | 123° |
| 2026-05-07 14:49 | 50.77488 | -126.14642 | 37233 ft | 557 kts | 124° |
| 2026-05-07 14:49 | 50.73376 | -126.04280 | 37230 ft | 557 kts | 124° |
| 2026-05-07 14:50 | 50.69272 | -125.93975 | 37235 ft | 557 kts | 124° |
| 2026-05-07 14:50 | 50.65137 | -125.83635 | 37235 ft | 557 kts | 124° |
| 2026-05-07 14:51 | 50.60985 | -125.73293 | 37239 ft | 560 kts | 123° |
| 2026-05-07 14:51 | 50.57506 | -125.64656 | 37219 ft | 561 kts | 124° |
| 2026-05-07 14:52 | 50.53322 | -125.54310 | 37217 ft | 561 kts | 124° |
| 2026-05-07 14:52 | 50.49127 | -125.43977 | 37218 ft | 561 kts | 124° |
| 2026-05-07 14:53 | 50.44919 | -125.33656 | 37216 ft | 561 kts | 124° |
| 2026-05-07 14:53 | 50.40728 | -125.23413 | 37201 ft | 561 kts | 124° |
| 2026-05-07 14:54 | 50.36501 | -125.13123 | 37199 ft | 561 kts | 124° |
| 2026-05-07 14:54 | 50.32256 | -125.02833 | 37196 ft | 561 kts | 124° |
| 2026-05-07 14:55 | 50.28015 | -124.92588 | 37202 ft | 561 kts | 124° |
| 2026-05-07 14:55 | 50.23759 | -124.82349 | 37196 ft | 561 kts | 124° |
| 2026-05-07 14:56 | 50.19969 | -124.71725 | 37215 ft | 562 kts | 108° |
| 2026-05-07 14:56 | 50.17627 | -124.60129 | 37191 ft | 551 kts | 106° |
| 2026-05-07 14:57 | 50.16515 | -124.54474 | 36786 ft | 543 kts | 106° |
| 2026-05-07 14:57 | 50.15397 | -124.48850 | 36007 ft | 543 kts | 106° |
| 2026-05-07 14:57 | 50.14262 | -124.43212 | 35190 ft | 544 kts | 106° |
| 2026-05-07 14:57 | 50.13131 | -124.37586 | 34349 ft | 544 kts | 106° |
| 2026-05-07 14:58 | 50.12017 | -124.32026 | 33440 ft | 545 kts | 106° |
| 2026-05-07 14:58 | 50.10880 | -124.26376 | 32510 ft | 544 kts | 106° |
| 2026-05-07 14:58 | 50.09742 | -124.20759 | 31621 ft | 543 kts | 106° |
| 2026-05-07 14:58 | 50.08603 | -124.15156 | 30744 ft | 542 kts | 107° |
| 2026-05-07 14:59 | 50.07470 | -124.09579 | 29868 ft | 540 kts | 107° |
| 2026-05-07 14:59 | 50.06333 | -124.04006 | 28881 ft | 537 kts | 107° |
| 2026-05-07 14:59 | 50.04949 | -123.98637 | 27978 ft | 534 kts | 118° |
| 2026-05-07 14:59 | 50.02971 | -123.93793 | 27096 ft | 528 kts | 129° |
| 2026-05-07 15:00 | 50.00502 | -123.89627 | 26246 ft | 521 kts | 140° |
| 2026-05-07 15:00 | 49.97642 | -123.86250 | 25421 ft | 513 kts | 151° |
| 2026-05-07 15:00 | 49.94536 | -123.83611 | 24601 ft | 507 kts | 155° |
| 2026-05-07 15:00 | 49.91427 | -123.81087 | 23816 ft | 502 kts | 155° |
| 2026-05-07 15:01 | 49.88385 | -123.78650 | 22826 ft | 473 kts | 155° |
| 2026-05-07 15:01 | 49.85566 | -123.76387 | 21860 ft | 441 kts | 155° |
| 2026-05-07 15:01 | 49.82924 | -123.74258 | 20925 ft | 418 kts | 154° |
| 2026-05-07 15:01 | 49.80520 | -123.71700 | 20072 ft | 423 kts | 139° |
| 2026-05-07 15:02 | 49.78328 | -123.68723 | 19237 ft | 426 kts | 139° |
| 2026-05-07 15:02 | 49.76105 | -123.65665 | 18412 ft | 428 kts | 138° |
| 2026-05-07 15:02 | 49.73882 | -123.62592 | 17489 ft | 429 kts | 138° |
| 2026-05-07 15:02 | 49.71651 | -123.59543 | 16590 ft | 428 kts | 139° |
| 2026-05-07 15:03 | 49.69449 | -123.56548 | 15702 ft | 406 kts | 139° |
| 2026-05-07 15:03 | 49.67413 | -123.53772 | 14810 ft | 376 kts | 138° |
| 2026-05-07 15:03 | 49.65514 | -123.51180 | 13931 ft | 353 kts | 138° |
| 2026-05-07 15:03 | 49.63721 | -123.48738 | 12960 ft | 334 kts | 138° |
| 2026-05-07 15:04 | 49.61929 | -123.46637 | 12016 ft | 316 kts | 155° |
| 2026-05-07 15:04 | 49.59916 | -123.45689 | 11140 ft | 300 kts | 173° |
| 2026-05-07 15:04 | 49.57879 | -123.45279 | 10258 ft | 289 kts | 173° |
| 2026-05-07 15:04 | 49.55911 | -123.44926 | 9380 ft | 280 kts | 174° |
| 2026-05-07 15:05 | 49.53991 | -123.44579 | 8736 ft | 280 kts | 173° |
| 2026-05-07 15:05 | 49.52041 | -123.44211 | 8123 ft | 284 kts | 173° |
| 2026-05-07 15:05 | 49.50082 | -123.43843 | 7652 ft | 281 kts | 173° |
| 2026-05-07 15:05 | 49.48172 | -123.43491 | 7381 ft | 272 kts | 172° |
| 2026-05-07 15:06 | 49.46310 | -123.43147 | 7072 ft | 268 kts | 172° |
| 2026-05-07 15:06 | 49.44469 | -123.43208 | 6746 ft | 266 kts | 191° |
| 2026-05-07 15:06 | 49.42649 | -123.43734 | 6423 ft | 266 kts | 187° |
| 2026-05-07 15:06 | 49.40851 | -123.44137 | 6085 ft | 263 kts | 187° |
| 2026-05-07 15:07 | 49.39059 | -123.44570 | 5988 ft | 258 kts | 188° |
| 2026-05-07 15:07 | 49.37258 | -123.45049 | 5728 ft | 262 kts | 192° |
| 2026-05-07 15:07 | 49.35670 | -123.46351 | 5442 ft | 262 kts | 219° |
| 2026-05-07 15:07 | 49.34370 | -123.48213 | 5133 ft | 250 kts | 224° |
| 2026-05-07 15:08 | 49.33181 | -123.50091 | 4784 ft | 241 kts | 225° |
| 2026-05-07 15:08 | 49.32041 | -123.51920 | 4410 ft | 235 kts | 226° |
| 2026-05-07 15:08 | 49.30763 | -123.53373 | 3983 ft | 228 kts | 197° |
| 2026-05-07 15:08 | 49.29225 | -123.53346 | 3562 ft | 223 kts | 158° |
| 2026-05-07 15:09 | 49.28051 | -123.51903 | 3272 ft | 215 kts | 131° |
| 2026-05-07 15:09 | 49.26998 | -123.50290 | 3018 ft | 211 kts | 135° |
| 2026-05-07 15:09 | 49.25981 | -123.48794 | 2996 ft | 194 kts | 135° |
| 2026-05-07 15:09 | 49.25046 | -123.47418 | 2991 ft | 187 kts | 136° |
| 2026-05-07 15:10 | 49.24118 | -123.46041 | 2988 ft | 185 kts | 134° |
| 2026-05-07 15:10 | 49.23470 | -123.44378 | 2990 ft | 183 kts | 112° |
| 2026-05-07 15:10 | 49.23132 | -123.42494 | 2987 ft | 185 kts | 101° |
| 2026-05-07 15:10 | 49.22883 | -123.40532 | 2752 ft | 185 kts | 100° |
| 2026-05-07 15:11 | 49.22659 | -123.38616 | 2495 ft | 182 kts | 100° |
| 2026-05-07 15:11 | 49.22438 | -123.36703 | 2241 ft | 183 kts | 99° |
| 2026-05-07 15:11 | 49.22218 | -123.34792 | 2002 ft | 182 kts | 99° |
| 2026-05-07 15:11 | 49.21999 | -123.32893 | 1754 ft | 176 kts | 99° |
| 2026-05-07 15:12 | 49.21799 | -123.31166 | 1515 ft | 155 kts | 99° |
| 2026-05-07 15:12 | 49.21615 | -123.29564 | 1322 ft | 152 kts | 99° |
| 2026-05-07 15:12 | 49.21432 | -123.27980 | 1112 ft | 150 kts | 100° |
| 2026-05-07 15:12 | 49.21252 | -123.26408 | 890 ft | 150 kts | 100° |
| 2026-05-07 15:13 | 49.21074 | -123.24869 | 683 ft | 148 kts | 100° |
| 2026-05-07 15:13 | 49.20894 | -123.23322 | 478 ft | 148 kts | 100° |
| 2026-05-07 15:13 | 49.20715 | -123.21770 | 268 ft | 148 kts | 100° |
| 2026-05-07 15:13 | 49.20538 | -123.20237 | 60 ft | 146 kts | 100° |
| 2026-05-07 15:14 | 49.20373 | -123.18802 | 18 ft | 116 kts | 100° |
| 2026-05-07 15:14 | 49.20270 | -123.17919 | 12 ft | 55 kts | 103° |
| 2026-05-07 15:14 | 49.20142 | -123.17545 | 14 ft | 24 kts | 130° |
| 2026-05-07 15:14 | 49.20076 | -123.17425 | 16 ft | 6 kts | 130° |
| 2026-05-07 15:15 | 49.20073 | -123.17419 | 15 ft | 0 kts | 130° |
| 2026-05-07 15:16 | 49.20071 | -123.17415 | 15 ft | 3 kts | 130° |
| 2026-05-07 15:16 | 49.20024 | -123.17365 | 15 ft | 12 kts | 175° |
| 2026-05-07 15:16 | 49.19993 | -123.17416 | 15 ft | 6 kts | 278° |
| 2026-05-07 15:16 | 49.20016 | -123.17574 | 15 ft | 26 kts | 282° |
| 2026-05-07 15:17 | 49.20051 | -123.17865 | 15 ft | 28 kts | 279° |
| 2026-05-07 15:17 | 49.20085 | -123.18161 | 15 ft | 28 kts | 280° |
| 2026-05-07 15:17 | 49.20115 | -123.18425 | 15 ft | 15 kts | 280° |
| 2026-05-07 15:17 | 49.20073 | -123.18500 | 15 ft | 12 kts | 193° |
| 2026-05-07 15:18 | 49.19947 | -123.18536 | 15 ft | 22 kts | 190° |
| 2026-05-07 15:18 | 49.19825 | -123.18568 | 17 ft | 11 kts | 189° |
| 2026-05-07 15:18 | 49.19764 | -123.18579 | 16 ft | 11 kts | 189° |
| 2026-05-07 15:18 | 49.19710 | -123.18524 | 15 ft | 12 kts | 107° |
| 2026-05-07 15:19 | 49.19715 | -123.18381 | 16 ft | 13 kts | 51° |
| 2026-05-07 15:19 | 49.19752 | -123.18256 | 15 ft | 14 kts | 67° |
| 2026-05-07 15:19 | 49.19811 | -123.18162 | 15 ft | 6 kts | 42° |
| 2026-05-07 15:19 | 49.19814 | -123.18158 | 17 ft | 0 kts | 42° |